Time;durP1;ratioP1;P1;durP2;ratioP2;P2;SDS_P1;SDS_P2;PMS_P1;PMS_P2;Temp;Humidity;BMP_temperature;BMP_pressure;BME280_temperature;BME280_humidity;BME280_pressure;Samples;Min_cycle;Max_cycle;Signal;HPM_P1;HPM_P2
2022/07/28 00:01:58;;;;;;;4.50;1.25;;;26.90;34.30;;;;;;6264794;28;20032;-72
2022/07/28 00:04:59;;;;;;;11.38;1.35;;;26.80;34.40;;;;;;6281696;28;20468;-73
2022/07/28 00:08:01;;;;;;;3.67;1.17;;;26.70;34.40;;;;;;6281578;28;20036;-72
2022/07/28 00:11:01;;;;;;;5.28;1.33;;;26.70;34.60;;;;;;6281258;28;20044;-73
2022/07/28 00:14:02;;;;;;;2.80;1.15;;;26.60;34.60;;;;;;6287160;28;20094;-73
2022/07/28 00:17:03;;;;;;;2.65;1.00;;;26.60;34.80;;;;;;6298482;28;20032;-72
2022/07/28 00:20:05;;;;;;;3.10;1.00;;;26.60;35.00;;;;;;6280771;28;20059;-73
2022/07/28 00:23:06;;;;;;;3.53;1.02;;;26.60;34.90;;;;;;6281320;28;20070;-73
2022/07/28 00:26:08;;;;;;;2.95;1.20;;;26.50;34.90;;;;;;6292149;28;20036;-73
2022/07/28 00:29:09;;;;;;;2.75;1.08;;;26.50;35.00;;;;;;6280821;28;20029;-73
2022/07/28 00:32:10;;;;;;;1.33;0.80;;;26.50;35.00;;;;;;6280870;28;20068;-73
2022/07/28 00:39:32;;;;;;;;;;;26.50;35.20;;;;;;6288464;28;20044;-73
2022/07/28 00:42:33;;;;;;;8.20;1.38;;;26.50;35.30;;;;;;6305426;28;19934;-73
2022/07/28 00:45:34;;;;;;;2.80;1.20;;;26.50;35.20;;;;;;6265593;28;20405;-73
2022/07/28 00:48:39;;;;;;;1.35;1.10;;;26.40;35.20;;;;;;6281957;28;20059;-72
2022/07/28 00:51:41;;;;;;;6.10;1.45;;;26.40;35.30;;;;;;6299000;28;20189;-72
2022/07/28 00:54:42;;;;;;;8.60;1.40;;;26.40;35.40;;;;;;6281101;28;20037;-73
2022/07/28 00:57:43;;;;;;;2.97;1.05;;;26.40;35.50;;;;;;6321567;28;20033;-73
2022/07/28 01:00:43;;;;;;;5.00;1.13;;;26.40;35.60;;;;;;6289989;28;20503;-73
2022/07/28 01:03:49;;;;;;;7.03;1.40;;;26.40;35.60;;;;;;6300535;28;20539;-73
2022/07/28 01:07:04;;;;;;;1.20;0.95;;;26.40;35.80;;;;;;6265458;28;20117;-73
2022/07/28 01:10:12;;;;;;;2.63;1.30;;;26.30;35.80;;;;;;6302124;28;20051;-73
2022/07/28 01:13:42;;;;;;;3.97;1.53;;;26.30;35.90;;;;;;6290378;28;20037;-73
2022/07/28 01:17:02;;;;;;;5.95;1.52;;;26.30;36.00;;;;;;6180910;28;20421;-73
2022/07/28 01:20:10;;;;;;;8.30;1.70;;;26.20;36.20;;;;;;6164601;28;20100;-73
2022/07/28 01:23:11;;;;;;;8.77;2.28;;;26.20;36.30;;;;;;6179390;28;20070;-73
2022/07/28 01:26:27;;;;;;;5.55;2.00;;;26.20;36.40;;;;;;6180294;28;20108;-73
2022/07/28 01:29:49;;;;;;;3.90;2.00;;;26.20;36.60;;;;;;6195762;28;20125;-73
2022/07/28 01:33:13;;;;;;;3.13;1.63;;;26.20;36.60;;;;;;6192095;28;20030;-73
2022/07/28 01:36:19;;;;;;;5.53;1.58;;;26.20;36.80;;;;;;6177531;28;20113;-73
2022/07/28 01:39:24;;;;;;;2.17;1.50;;;26.10;36.90;;;;;;6193117;28;20516;-73
2022/07/28 01:42:31;;;;;;;7.10;1.42;;;26.10;37.10;;;;;;6194055;28;20105;-73
2022/07/28 01:45:33;;;;;;;2.78;1.20;;;26.00;37.30;;;;;;6181417;28;20030;-73
2022/07/28 01:48:37;;;;;;;2.67;1.17;;;26.00;37.40;;;;;;6194682;28;20057;-73
2022/07/28 01:51:40;;;;;;;1.27;0.93;;;25.90;37.40;;;;;;6194411;28;20103;-73
2022/07/28 01:54:44;;;;;;;1.70;1.13;;;25.90;37.50;;;;;;6287040;28;20037;-73
2022/07/28 01:57:47;;;;;;;1.55;1.08;;;25.80;37.50;;;;;;6295336;28;20044;-72
2022/07/28 02:00:50;;;;;;;2.25;1.23;;;25.80;37.60;;;;;;6293885;28;20113;-73
2022/07/28 02:03:52;;;;;;;9.95;1.40;;;25.80;37.60;;;;;;6304137;28;20044;-73
2022/07/28 02:06:55;;;;;;;3.85;1.33;;;25.70;37.70;;;;;;6279240;28;20063;-72
2022/07/28 02:09:59;;;;;;;1.30;1.20;;;25.70;37.90;;;;;;6305888;28;20526;-73
2022/07/28 02:13:00;;;;;;;3.33;1.20;;;25.60;38.10;;;;;;6313905;28;20357;-72
2022/07/28 02:16:04;;;;;;;3.13;1.20;;;25.60;38.20;;;;;;6278792;28;20119;-73
2022/07/28 02:19:06;;;;;;;4.63;1.13;;;25.50;38.20;;;;;;6296545;28;20075;-72
2022/07/28 02:22:08;;;;;;;2.50;1.08;;;25.50;38.30;;;;;;6278490;28;20059;-72
2022/07/28 02:25:10;;;;;;;3.70;1.25;;;25.50;38.40;;;;;;6278064;28;20101;-73
2022/07/28 02:28:13;;;;;;;3.00;1.05;;;25.50;38.30;;;;;;6295060;28;20028;-73
2022/07/28 02:31:44;;;;;;;1.10;1.00;;;25.40;38.30;;;;;;6277605;28;20036;-72
2022/07/28 02:34:48;;;;;;;5.38;1.10;;;25.40;38.40;;;;;;6263878;28;20033;-73
2022/07/28 02:38:01;;;;;;;3.50;0.90;;;25.40;38.40;;;;;;6269661;28;20044;-72
2022/07/28 02:41:17;;;;;;;2.40;1.00;;;25.40;38.50;;;;;;6307372;28;20492;-73
2022/07/28 02:44:25;;;;;;;2.00;1.00;;;25.30;38.60;;;;;;6290653;28;20058;-73
2022/07/28 02:47:30;;;;;;;8.13;1.52;;;25.30;38.70;;;;;;6299500;28;20062;-73
2022/07/28 02:50:31;;;;;;;4.90;1.10;;;25.30;38.70;;;;;;6274699;28;20110;-73
2022/07/28 02:53:33;;;;;;;6.82;1.02;;;25.30;38.80;;;;;;6258500;28;20040;-73
2022/07/28 02:56:34;;;;;;;7.72;1.45;;;25.30;38.90;;;;;;6275522;28;20040;-72
2022/07/28 02:59:36;;;;;;;1.38;1.00;;;25.30;39.00;;;;;;6275987;28;20048;-73
2022/07/28 03:02:40;;;;;;;1.70;1.20;;;25.30;39.10;;;;;;6258078;28;20178;-72
2022/07/28 03:05:41;;;;;;;1.77;1.05;;;25.20;39.30;;;;;;6267980;28;20033;-72
2022/07/28 03:08:42;;;;;;;1.42;1.30;;;25.20;39.30;;;;;;6268804;28;20045;-72
2022/07/28 03:11:52;;;;;;;5.93;1.30;;;25.20;39.40;;;;;;6275660;28;20045;-72
2022/07/28 03:14:54;;;;;;;2.20;1.27;;;25.20;39.40;;;;;;6262785;28;20105;-72
2022/07/28 03:17:55;;;;;;;1.60;1.20;;;25.20;39.60;;;;;;6293660;28;20051;-72
2022/07/28 03:20:56;;;;;;;5.57;1.10;;;25.20;39.60;;;;;;6293528;28;20405;-72
2022/07/28 03:23:57;;;;;;;3.55;1.30;;;25.20;39.70;;;;;;6293250;28;20036;-72
2022/07/28 03:27:02;;;;;;;2.15;1.00;;;25.20;39.70;;;;;;6275542;28;20479;-72
2022/07/28 03:30:10;;;;;;;7.10;1.98;;;25.20;39.80;;;;;;6250944;28;20473;-72
2022/07/28 03:33:11;;;;;;;;;;;25.10;39.90;;;;;;6267515;28;20386;-73
2022/07/28 03:36:17;;;;;;;3.05;1.23;;;25.10;39.90;;;;;;6259148;28;20357;-73
2022/07/28 03:39:21;;;;;;;1.67;1.02;;;25.10;39.90;;;;;;6247423;28;20481;-73
2022/07/28 03:42:39;;;;;;;1.88;1.10;;;25.00;39.90;;;;;;6267948;28;20091;-73
2022/07/28 03:45:41;;;;;;;2.88;1.15;;;25.00;40.10;;;;;;6282553;28;20106;-73
2022/07/28 03:48:41;;;;;;;2.78;1.17;;;25.00;40.20;;;;;;6268399;28;20033;-73
2022/07/28 03:51:42;;;;;;;6.88;1.30;;;25.00;40.30;;;;;;6267201;28;20128;-73
2022/07/28 03:54:44;;;;;;;1.65;1.13;;;25.00;40.50;;;;;;6266844;28;20036;-73
2022/07/28 03:57:45;;;;;;;3.08;1.30;;;24.90;40.60;;;;;;6237836;28;20056;-73
2022/07/28 04:00:48;;;;;;;2.63;1.30;;;24.90;40.60;;;;;;6276452;28;20051;-73
2022/07/28 04:03:49;;;;;;;1.55;1.10;;;24.80;40.60;;;;;;6272723;28;20056;-73
2022/07/28 04:06:50;;;;;;;3.47;1.27;;;24.80;40.60;;;;;;6255131;28;20032;-73
2022/07/28 04:09:51;;;;;;;2.10;1.30;;;24.70;40.80;;;;;;6281554;28;20136;-73
2022/07/28 04:12:54;;;;;;;9.32;1.23;;;24.70;40.90;;;;;;6292782;28;20410;-73
2022/07/28 04:15:55;;;;;;;5.57;1.40;;;24.60;40.90;;;;;;6272463;28;20112;-72
2022/07/28 04:18:56;;;;;;;1.85;1.17;;;24.60;41.00;;;;;;6272370;28;20416;-73
2022/07/28 04:21:56;;;;;;;2.92;1.27;;;24.60;41.10;;;;;;6272117;28;20474;-72
2022/07/28 04:24:57;;;;;;;2.50;1.42;;;24.50;41.20;;;;;;6271285;28;20116;-73
2022/07/28 04:27:58;;;;;;;1.92;1.15;;;24.50;41.30;;;;;;6265237;28;20420;-73
2022/07/28 04:30:59;;;;;;;1.92;1.08;;;24.50;41.60;;;;;;6248634;28;20358;-72
2022/07/28 04:34:00;;;;;;;1.58;1.17;;;24.50;41.60;;;;;;6238229;28;20428;-72
2022/07/28 04:37:01;;;;;;;1.70;1.00;;;24.50;41.60;;;;;;6271667;28;20036;-72
2022/07/28 04:40:02;;;;;;;1.92;1.13;;;24.50;41.70;;;;;;6264863;28;20043;-73
2022/07/28 04:43:03;;;;;;;2.88;1.27;;;24.50;41.90;;;;;;6290730;28;20071;-72
2022/07/28 04:46:04;;;;;;;2.13;1.30;;;24.50;41.90;;;;;;6254276;28;20037;-73
2022/07/28 04:49:05;;;;;;;2.85;1.33;;;24.50;42.00;;;;;;6253909;28;20037;-73
2022/07/28 04:52:07;;;;;;;2.60;1.10;;;24.40;42.00;;;;;;6270704;28;20124;-73
2022/07/28 04:59:30;;;;;;;2.58;1.60;;;24.40;42.20;;;;;;6249086;28;20038;-72
2022/07/28 05:02:30;;;;;;;5.75;1.70;;;24.40;42.10;;;;;;6261978;28;20210;-72
2022/07/28 05:05:31;;;;;;;2.90;1.55;;;24.40;42.20;;;;;;6274172;28;20036;-73
2022/07/28 05:08:32;;;;;;;7.68;1.80;;;24.40;42.00;;;;;;6273317;28;20029;-73
2022/07/28 05:11:33;;;;;;;3.08;1.40;;;24.40;42.00;;;;;;6282415;28;20045;-73
2022/07/28 05:14:34;;;;;;;3.63;1.73;;;24.40;42.10;;;;;;6273405;28;20025;-72
2022/07/28 05:17:37;;;;;;;4.88;1.50;;;24.40;42.10;;;;;;6257002;28;20029;-72
2022/07/28 05:20:38;;;;;;;7.13;1.50;;;24.40;42.30;;;;;;6256386;28;20076;-72
2022/07/28 05:23:39;;;;;;;2.13;1.23;;;24.30;42.20;;;;;;6256497;28;20461;-73
2022/07/28 05:26:40;;;;;;;2.00;1.25;;;24.30;42.20;;;;;;6266981;28;20068;-72
2022/07/28 05:29:41;;;;;;;1.42;1.30;;;24.30;42.20;;;;;;6247478;28;20408;-71
2022/07/28 05:32:44;;;;;;;2.05;1.50;;;24.40;42.90;;;;;;6273560;28;20118;-75
2022/07/28 05:35:53;;;;;;;2.20;1.17;;;24.30;42.20;;;;;;6255860;28;20029;-75
2022/07/28 05:38:54;;;;;;;2.20;1.27;;;24.50;42.30;;;;;;6257695;28;20449;-74
2022/07/28 05:41:54;;;;;;;2.40;1.50;;;24.70;42.00;;;;;;6297896;28;20151;-74
2022/07/28 05:44:55;;;;;;;2.67;1.50;;;24.80;41.70;;;;;;6277015;28;20119;-74
2022/07/28 05:47:56;;;;;;;3.42;1.50;;;24.80;41.50;;;;;;6255636;28;20418;-75
2022/07/28 05:50:57;;;;;;;3.72;1.50;;;24.80;41.40;;;;;;6256237;28;20048;-78
2022/07/28 05:53:58;;;;;;;7.03;1.42;;;24.70;41.70;;;;;;6255739;28;20036;-71
2022/07/28 05:56:59;;;;;;;2.65;1.30;;;24.70;42.10;;;;;;6272196;28;20037;-71
2022/07/28 05:59:59;;;;;;;2.78;1.50;;;24.60;42.40;;;;;;6272629;28;20041;-72
2022/07/28 06:03:01;;;;;;;2.65;1.10;;;24.50;42.50;;;;;;6273112;28;20048;-72
2022/07/28 06:06:02;;;;;;;4.72;1.58;;;24.50;42.60;;;;;;6273067;28;20050;-75
2022/07/28 06:09:03;;;;;;;14.98;1.55;;;24.50;42.70;;;;;;6241762;28;20048;-76
2022/07/28 06:12:05;;;;;;;3.95;1.65;;;24.60;42.50;;;;;;6242103;28;20045;-76
2022/07/28 06:15:10;;;;;;;8.70;1.75;;;24.70;42.40;;;;;;6238649;28;20037;-75
2022/07/28 06:18:11;;;;;;;1.85;1.52;;;24.70;42.30;;;;;;6254055;28;20431;-74
2022/07/28 06:21:13;;;;;;;5.32;1.40;;;24.90;42.10;;;;;;6230453;28;20038;-75
2022/07/28 06:24:13;;;;;;;2.13;1.33;;;25.00;41.90;;;;;;6247497;28;20045;-75
2022/07/28 06:27:14;;;;;;;2.55;1.45;;;25.10;41.70;;;;;;6245130;28;20466;-74
2022/07/28 06:30:16;;;;;;;3.35;1.50;;;25.20;41.50;;;;;;6247322;28;20044;-73
2022/07/28 06:33:17;;;;;;;7.20;2.00;;;25.20;41.40;;;;;;6267044;28;20059;-74
2022/07/28 06:36:18;;;;;;;3.33;1.60;;;25.20;41.30;;;;;;6254323;28;20037;-74
2022/07/28 06:39:19;;;;;;;2.00;1.52;;;25.20;41.20;;;;;;6259269;28;20032;-74
2022/07/28 06:42:20;;;;;;;3.28;1.65;;;25.30;41.30;;;;;;6271002;28;20033;-74
2022/07/28 06:45:21;;;;;;;4.88;1.80;;;25.30;41.30;;;;;;6267922;28;20477;-74
2022/07/28 06:48:22;;;;;;;5.15;1.77;;;25.30;41.30;;;;;;6255186;28;20052;-73
2022/07/28 06:51:23;;;;;;;4.50;1.63;;;25.30;41.30;;;;;;6271345;28;20145;-75
2022/07/28 06:54:24;;;;;;;5.32;1.42;;;25.40;41.30;;;;;;6253676;28;20063;-74
2022/07/28 06:57:26;;;;;;;11.93;1.85;;;25.50;41.20;;;;;;6253978;28;20470;-74
2022/07/28 07:00:27;;;;;;;4.53;1.77;;;25.50;41.20;;;;;;6255531;28;20045;-73
2022/07/28 07:03:28;;;;;;;7.13;1.70;;;25.60;41.10;;;;;;6279323;28;20051;-73
2022/07/28 07:06:29;;;;;;;7.32;1.50;;;25.70;41.10;;;;;;6281368;28;20033;-75
2022/07/28 07:09:30;;;;;;;6.40;1.73;;;25.70;40.90;;;;;;6297764;28;20071;-75
2022/07/28 07:12:34;;;;;;;6.15;1.83;;;25.80;40.80;;;;;;6260999;28;20045;-75
2022/07/28 07:15:35;;;;;;;6.50;1.85;;;25.90;40.70;;;;;;6254489;28;20124;-75
2022/07/28 07:18:36;;;;;;;3.40;1.92;;;26.00;40.40;;;;;;6271869;28;20033;-74
2022/07/28 07:21:37;;;;;;;7.28;1.80;;;26.20;40.20;;;;;;6237987;28;20377;-75
2022/07/28 07:24:37;;;;;;;5.57;1.80;;;26.20;40.30;;;;;;6253843;28;20041;-75
2022/07/28 07:27:38;;;;;;;2.90;1.70;;;26.30;40.10;;;;;;6254493;28;20432;-75
2022/07/28 07:30:39;;;;;;;4.97;1.50;;;26.30;40.00;;;;;;6256405;28;20049;-75
2022/07/28 07:33:40;;;;;;;4.78;1.48;;;26.50;39.90;;;;;;6282691;28;20129;-76
2022/07/28 07:36:41;;;;;;;3.55;1.80;;;26.60;39.60;;;;;;6264193;28;20044;-75
2022/07/28 07:39:42;;;;;;;5.80;1.88;;;26.70;39.30;;;;;;6307999;28;20356;-75
2022/07/28 07:42:43;;;;;;;3.45;1.73;;;26.90;39.20;;;;;;6288763;28;20040;-75
2022/07/28 07:45:44;;;;;;;10.02;2.13;;;27.10;38.90;;;;;;6300983;28;20147;-75
2022/07/28 07:48:45;;;;;;;2.88;1.80;;;27.20;38.70;;;;;;6301161;28;20055;-76
2022/07/28 07:51:46;;;;;;;5.85;1.70;;;27.30;38.30;;;;;;6300690;28;20040;-74
2022/07/28 07:54:47;;;;;;;4.47;1.52;;;27.50;38.20;;;;;;6282340;28;20041;-75
2022/07/28 07:57:49;;;;;;;2.75;1.42;;;27.60;37.70;;;;;;6282837;28;20037;-76
2022/07/28 08:00:50;;;;;;;3.85;1.70;;;27.70;37.40;;;;;;6265326;28;20537;-75
2022/07/28 08:03:51;;;;;;;4.68;1.48;;;27.80;37.20;;;;;;6282772;28;20045;-73
2022/07/28 08:06:52;;;;;;;2.20;1.52;;;27.80;36.80;;;;;;6299376;28;20357;-74
2022/07/28 08:09:53;;;;;;;7.07;1.60;;;27.90;36.70;;;;;;6281970;28;20044;-75
2022/07/28 08:12:54;;;;;;;11.38;2.15;;;28.10;36.60;;;;;;6282602;28;20036;-74
2022/07/28 08:15:55;;;;;;;3.80;1.50;;;28.30;36.20;;;;;;6298440;28;20028;-74
2022/07/28 08:18:58;;;;;;;6.53;1.50;;;28.30;36.00;;;;;;6299406;28;20119;-76
2022/07/28 08:22:01;;;;;;;4.15;1.75;;;28.40;36.00;;;;;;6266055;28;20534;-74
2022/07/28 08:25:02;;;;;;;3.88;1.30;;;28.40;35.80;;;;;;6282616;28;20049;-74
2022/07/28 08:28:04;;;;;;;8.18;1.73;;;28.60;35.30;;;;;;6299095;28;20059;-76
2022/07/28 08:31:04;;;;;;;10.90;1.67;;;28.70;35.70;;;;;;6265490;28;20044;-74
2022/07/28 08:34:05;;;;;;;17.55;2.17;;;28.80;35.50;;;;;;6265503;28;20104;-75
2022/07/28 08:37:06;;;;;;;7.40;1.80;;;28.80;35.30;;;;;;6282369;28;20052;-76
2022/07/28 08:40:13;;;;;;;8.73;1.60;;;28.80;35.20;;;;;;6297553;28;20349;-75
2022/07/28 08:43:29;;;;;;;2.53;1.58;;;28.90;35.10;;;;;;6281270;28;20472;-73
2022/07/28 08:46:35;;;;;;;4.72;1.80;;;29.00;35.60;;;;;;6273368;28;20343;-75
2022/07/28 08:49:39;;;;;;;5.35;1.30;;;29.20;34.60;;;;;;6257064;28;20372;-74
2022/07/28 08:52:44;;;;;;;2.40;1.52;;;29.20;34.30;;;;;;6256383;28;20041;-75
2022/07/28 08:55:47;;;;;;;2.35;1.20;;;29.30;34.10;;;;;;6273175;28;20040;-75
2022/07/28 08:58:48;;;;;;;2.53;1.30;;;29.30;33.90;;;;;;6272986;28;20044;-74
2022/07/28 09:01:50;;;;;;;4.70;1.30;;;29.40;33.80;;;;;;6281795;28;20041;-75
2022/07/28 09:04:54;;;;;;;4.72;1.40;;;29.40;33.60;;;;;;6304746;28;20028;-75
2022/07/28 09:07:56;;;;;;;6.22;1.50;;;29.60;33.60;;;;;;6306615;28;20028;-75
2022/07/28 09:10:57;;;;;;;1.88;1.50;;;29.70;33.30;;;;;;6322372;28;20039;-75
2022/07/28 09:13:59;;;;;;;8.77;1.85;;;29.90;33.10;;;;;;6302752;28;20072;-75
2022/07/28 09:17:01;;;;;;;4.38;1.52;;;29.90;32.80;;;;;;6322757;28;20029;-75
2022/07/28 09:20:03;;;;;;;4.63;1.45;;;29.90;32.80;;;;;;6305907;28;20111;-75
2022/07/28 09:23:05;;;;;;;10.10;1.42;;;30.00;32.70;;;;;;6289343;28;20103;-75
2022/07/28 09:26:10;;;;;;;6.07;1.70;;;30.10;32.60;;;;;;6322072;28;20039;-75
2022/07/28 09:29:11;;;;;;;4.10;1.60;;;30.20;32.50;;;;;;6321841;28;20043;-76
2022/07/28 09:32:14;;;;;;;2.55;1.55;;;30.30;32.30;;;;;;6294072;28;20457;-75
2022/07/28 09:35:19;;;;;;;8.02;1.92;;;30.40;32.20;;;;;;6296986;28;20100;-76
2022/07/28 09:38:22;;;;;;;3.25;1.73;;;30.40;32.00;;;;;;6298550;28;20032;-76
2022/07/28 09:41:23;;;;;;;2.83;1.48;;;30.50;32.00;;;;;;6296972;28;20043;-75
2022/07/28 09:44:26;;;;;;;7.57;1.58;;;30.50;32.00;;;;;;6305283;28;20187;-75
2022/07/28 09:47:30;;;;;;;5.03;1.50;;;30.40;32.00;;;;;;6304747;28;20028;-76
2022/07/28 09:50:31;;;;;;;3.38;2.03;;;30.40;32.10;;;;;;6288236;28;20122;-75
2022/07/28 09:53:32;;;;;;;4.80;2.10;;;30.40;32.10;;;;;;6322379;28;20097;-75
2022/07/28 09:56:33;;;;;;;4.40;1.88;;;30.40;32.00;;;;;;6320790;28;20032;-74
2022/07/28 09:59:41;;;;;;;14.57;1.88;;;30.50;32.20;;;;;;6323604;28;20173;-76
2022/07/28 10:02:49;;;;;;;1.83;1.45;;;30.60;32.80;;;;;;6281096;28;20345;-76
2022/07/28 10:05:50;;;;;;;5.40;1.88;;;30.70;32.10;;;;;;6254779;28;20477;-75
2022/07/28 10:08:54;;;;;;;2.13;1.33;;;30.80;32.00;;;;;;6239325;28;20044;-75
2022/07/28 10:12:14;;;;;;;10.32;1.65;;;30.90;31.70;;;;;;6280340;28;20378;-76
2022/07/28 10:18:39;;;;;;;2.45;1.42;;;31.20;31.30;;;;;;6279406;28;20044;-75
2022/07/28 10:21:43;;;;;;;3.00;1.35;;;31.30;31.10;;;;;;6276450;28;20135;-74
2022/07/28 10:24:48;;;;;;;5.13;1.63;;;31.30;30.60;;;;;;6247148;28;20045;-75
2022/07/28 10:27:51;;;;;;;4.35;1.52;;;31.40;30.20;;;;;;6230217;28;20045;-75
2022/07/28 10:30:56;;;;;;;6.90;1.20;;;31.50;30.00;;;;;;6230479;28;20069;-75
2022/07/28 10:33:59;;;;;;;2.60;1.50;;;31.50;30.00;;;;;;6273595;28;20041;-75
2022/07/28 10:37:07;;;;;;;1.50;1.33;;;31.40;29.80;;;;;;6271679;28;20048;-75
2022/07/28 10:40:11;;;;;;;3.70;1.73;;;31.50;29.60;;;;;;6252105;28;20025;-75
2022/07/28 10:43:12;;;;;;;5.53;1.65;;;31.60;29.40;;;;;;6243436;28;20029;-74
2022/07/28 10:46:14;;;;;;;5.60;1.50;;;31.70;29.40;;;;;;6278822;28;20110;-75
2022/07/28 10:49:16;;;;;;;3.67;1.55;;;31.70;29.10;;;;;;6261781;28;20048;-74
2022/07/28 10:52:18;;;;;;;8.82;1.45;;;31.90;29.00;;;;;;6262210;28;20044;-75
2022/07/28 10:55:47;;;;;;;3.40;1.40;;;31.90;28.80;;;;;;6269780;28;20033;-75
2022/07/28 10:58:58;;;;;;;3.03;1.17;;;31.90;28.70;;;;;;6277801;28;20055;-75
2022/07/28 11:01:59;;;;;;;8.65;2.00;;;32.00;28.60;;;;;;6268387;28;20033;-73
2022/07/28 11:05:02;;;;;;;2.80;1.50;;;32.10;28.60;;;;;;6271685;28;20040;-74
2022/07/28 11:08:06;;;;;;;1.40;1.23;;;32.60;28.10;;;;;;6286491;28;20032;-76
2022/07/28 11:11:08;;;;;;;2.92;1.10;;;33.40;27.20;;;;;;6245567;28;20048;-75
2022/07/28 11:14:24;;;;;;;2.80;1.02;;;34.00;26.50;;;;;;6258122;28;20064;-75
2022/07/28 11:17:26;;;;;;;2.55;1.50;;;34.60;25.90;;;;;;6282339;28;20090;-75
2022/07/28 11:20:51;;;;;;;3.45;1.40;;;34.90;25.50;;;;;;6299853;28;20082;-74
2022/07/28 11:23:54;;;;;;;2.95;1.20;;;35.30;25.00;;;;;;6299771;28;20411;-75
2022/07/28 11:26:55;;;;;;;1.92;1.45;;;35.80;24.40;;;;;;6282666;28;20040;-75
2022/07/28 11:29:56;;;;;;;2.85;1.08;;;35.80;24.00;;;;;;6282356;28;20461;-75
2022/07/28 11:33:02;;;;;;;4.60;1.08;;;35.70;23.90;;;;;;6282197;28;20029;-75
2022/07/28 11:36:03;;;;;;;4.13;1.50;;;35.70;23.70;;;;;;6257747;28;20369;-75
2022/07/28 11:39:24;;;;;;;12.02;1.25;;;35.90;23.70;;;;;;6244129;28;20575;-75
2022/07/28 11:42:27;;;;;;;3.75;1.35;;;35.80;23.80;;;;;;6298192;28;20028;-75
2022/07/28 11:45:28;;;;;;;3.80;1.17;;;35.80;23.70;;;;;;6298795;28;20029;-75
2022/07/28 11:48:31;;;;;;;3.55;1.38;;;35.80;23.50;;;;;;6294688;28;20118;-75
2022/07/28 11:51:33;;;;;;;2.45;1.23;;;35.80;23.40;;;;;;6233896;28;20462;-75
2022/07/28 11:54:38;;;;;;;2.30;1.15;;;35.80;23.30;;;;;;6216157;28;20060;-74
2022/07/28 11:57:40;;;;;;;3.95;1.17;;;35.90;22.90;;;;;;6232745;28;20136;-74
2022/07/28 12:00:41;;;;;;;1.58;1.30;;;36.00;22.90;;;;;;6222928;28;20041;-76
2022/07/28 12:03:45;;;;;;;2.55;1.10;;;36.00;23.00;;;;;;6298097;28;20033;-74
2022/07/28 12:06:49;;;;;;;3.28;1.15;;;35.80;23.10;;;;;;6282098;28;20032;-74
2022/07/28 12:09:50;;;;;;;7.70;1.33;;;36.00;23.00;;;;;;6281425;28;20055;-75
2022/07/28 12:12:53;;;;;;;3.42;1.20;;;36.10;23.00;;;;;;6299735;28;20105;-75
2022/07/28 12:15:55;;;;;;;3.47;1.30;;;36.10;23.10;;;;;;6281550;28;20032;-75
2022/07/28 12:18:57;;;;;;;4.82;1.33;;;36.20;22.90;;;;;;6281046;28;20029;-75
2022/07/28 12:21:58;;;;;;;2.53;0.98;;;36.00;22.90;;;;;;6299511;28;20043;-74
2022/07/28 12:25:00;;;;;;;2.17;1.10;;;35.70;22.90;;;;;;6279514;28;20052;-75
2022/07/28 12:28:14;;;;;;;5.05;1.23;;;35.40;23.10;;;;;;6297976;28;20042;-75
2022/07/28 12:31:15;;;;;;;3.28;1.35;;;35.20;23.20;;;;;;6295550;28;20068;-75
2022/07/28 12:34:17;;;;;;;3.70;1.00;;;35.30;23.10;;;;;;6297254;28;20107;-75
2022/07/28 12:37:21;;;;;;;1.25;1.08;;;35.10;23.10;;;;;;6278915;28;20036;-74
2022/07/28 12:40:22;;;;;;;1.17;0.90;;;35.00;23.10;;;;;;6278368;28;20111;-74
2022/07/28 12:43:28;;;;;;;0.80;0.80;;;35.00;23.30;;;;;;6267941;28;20120;-74
2022/07/28 12:46:30;;;;;;;1.42;1.17;;;34.80;23.50;;;;;;6263078;28;20059;-74
2022/07/28 12:49:31;;;;;;;3.47;1.13;;;34.70;23.40;;;;;;6296175;28;20327;-74
2022/07/28 12:52:32;;;;;;;2.95;1.23;;;34.90;23.40;;;;;;6278219;28;20052;-75
2022/07/28 12:55:34;;;;;;;4.32;1.17;;;35.00;23.30;;;;;;6277446;28;20051;-75
2022/07/28 12:58:35;;;;;;;4.57;1.00;;;35.00;23.40;;;;;;6270443;28;20041;-75
2022/07/28 13:01:55;;;;;;;1.58;1.00;;;34.80;23.50;;;;;;6273346;28;20171;-75
2022/07/28 13:04:56;;;;;;;3.40;1.05;;;34.60;23.80;;;;;;6271272;28;20097;-75
2022/07/28 13:08:04;;;;;;;3.67;1.38;;;34.40;24.00;;;;;;6254590;28;20043;-75
2022/07/28 13:11:05;;;;;;;;;;;34.10;24.10;;;;;;6298745;28;20040;-73
2022/07/28 13:14:06;;;;;;;8.07;1.20;;;33.90;24.30;;;;;;6321767;28;19995;-74
2022/07/28 13:17:07;;;;;;;3.25;1.10;;;33.80;24.40;;;;;;6278179;28;20376;-74
2022/07/28 13:20:09;;;;;;;3.47;1.10;;;33.60;24.50;;;;;;6278614;28;20040;-75
2022/07/28 13:23:09;;;;;;;2.17;1.10;;;33.50;24.60;;;;;;6295133;28;20064;-74
2022/07/28 13:26:10;;;;;;;6.20;2.15;;;33.50;24.80;;;;;;6278767;28;20042;-75
2022/07/28 13:29:11;;;;;;;3.17;1.42;;;33.30;24.80;;;;;;6296418;28;20048;-75
2022/07/28 13:32:12;;;;;;;1.42;1.10;;;33.30;24.90;;;;;;6278197;28;20047;-75
2022/07/28 13:35:16;;;;;;;10.85;1.48;;;33.30;24.90;;;;;;6278392;28;20410;-74
2022/07/28 13:38:17;;;;;;;4.63;1.00;;;33.40;24.90;;;;;;6278597;28;20058;-74
2022/07/28 13:41:18;;;;;;;1.42;1.27;;;33.30;25.00;;;;;;6274888;28;20028;-74
2022/07/28 13:44:19;;;;;;;3.35;1.23;;;33.20;25.10;;;;;;6269986;28;20033;-74
2022/07/28 13:47:20;;;;;;;5.55;1.15;;;33.20;25.10;;;;;;6292126;28;20040;-74
2022/07/28 13:50:21;;;;;;;1.52;1.20;;;33.30;25.00;;;;;;6293783;28;20056;-75
2022/07/28 13:53:22;;;;;;;5.53;1.20;;;33.30;24.90;;;;;;6277457;28;20036;-75
2022/07/28 13:56:27;;;;;;;1.48;1.00;;;33.30;24.80;;;;;;6277697;28;20033;-74
2022/07/28 13:59:28;;;;;;;5.93;1.88;;;33.30;24.90;;;;;;6261473;28;20044;-74
2022/07/28 14:02:28;;;;;;;3.45;1.00;;;33.30;24.90;;;;;;6294307;28;20467;-75
2022/07/28 14:05:29;;;;;;;2.35;1.08;;;33.30;24.90;;;;;;6294129;28;20356;-75
2022/07/28 14:08:30;;;;;;;15.27;1.40;;;33.20;24.80;;;;;;6277761;28;20029;-73
2022/07/28 14:11:31;;;;;;;1.30;1.10;;;33.30;24.80;;;;;;6294142;28;20040;-75
2022/07/28 14:14:33;;;;;;;2.97;1.30;;;33.40;24.60;;;;;;6292987;28;20033;-74
2022/07/28 14:17:34;;;;;;;2.30;1.10;;;33.60;24.40;;;;;;6272036;28;20037;-76
2022/07/28 14:20:35;;;;;;;1.77;1.10;;;33.80;24.30;;;;;;6279959;28;20102;-75
2022/07/28 14:23:39;;;;;;;2.75;1.17;;;33.80;24.30;;;;;;6295108;28;20066;-74
2022/07/28 14:26:40;;;;;;;2.58;1.25;;;33.90;24.30;;;;;;6261877;28;20187;-75
2022/07/28 14:29:42;;;;;;;2.42;1.30;;;34.00;24.10;;;;;;6296389;28;20062;-75
2022/07/28 14:32:43;;;;;;;2.08;1.13;;;34.00;24.00;;;;;;6297038;28;20044;-74
2022/07/28 14:35:44;;;;;;;4.10;1.67;;;34.20;23.90;;;;;;6298344;28;20111;-75
2022/07/28 14:38:46;;;;;;;3.63;1.20;;;34.30;23.80;;;;;;6295381;28;20036;-75
2022/07/28 14:41:47;;;;;;;1.52;1.00;;;34.70;23.30;;;;;;6295166;28;20048;-75
2022/07/28 14:44:48;;;;;;;2.50;1.35;;;35.40;22.80;;;;;;6282657;28;20465;-74
2022/07/28 14:47:49;;;;;;;3.58;1.30;;;36.10;22.40;;;;;;6271226;28;20033;-75
2022/07/28 14:50:51;;;;;;;3.90;1.08;;;37.20;21.50;;;;;;6270334;28;20029;-75
2022/07/28 14:53:55;;;;;;;4.38;1.30;;;37.20;21.10;;;;;;6277313;28;20124;-74
2022/07/28 14:56:56;;;;;;;7.65;0.90;;;36.80;21.50;;;;;;6294926;28;20071;-74
2022/07/28 14:59:58;;;;;;;3.40;1.08;;;37.00;21.30;;;;;;6295408;28;20398;-76
2022/07/28 15:02:59;;;;;;;1.77;1.05;;;37.00;21.40;;;;;;6266251;28;20032;-74
2022/07/28 15:06:00;;;;;;;2.90;1.05;;;36.80;21.50;;;;;;6303581;28;20429;-75
2022/07/28 15:09:01;;;;;;;1.35;1.20;;;36.40;21.70;;;;;;6267856;28;20032;-74
2022/07/28 15:12:02;;;;;;;2.75;1.17;;;36.00;22.10;;;;;;6307055;28;20054;-76
2022/07/28 15:15:04;;;;;;;4.10;1.33;;;35.90;22.90;;;;;;6287839;28;20124;-75
2022/07/28 15:18:05;;;;;;;3.00;1.52;;;35.90;22.30;;;;;;6267740;28;20036;-74
2022/07/28 15:21:07;;;;;;;2.47;1.08;;;36.10;22.20;;;;;;6279325;28;20032;-75
2022/07/28 15:24:08;;;;;;;4.60;1.30;;;36.20;22.20;;;;;;6302748;28;20411;-75
2022/07/28 15:27:10;;;;;;;3.17;1.35;;;36.20;22.30;;;;;;6303039;28;20127;-75
2022/07/28 15:30:11;;;;;;;5.43;1.42;;;36.80;22.00;;;;;;6320466;28;20041;-74
2022/07/28 15:33:12;;;;;;;17.05;1.85;;;38.30;20.90;;;;;;6300963;28;20044;-75
2022/07/28 15:36:13;;;;;;;2.92;1.13;;;39.20;20.10;;;;;;6278168;28;20086;-75
2022/07/28 15:39:14;;;;;;;5.22;2.58;;;39.30;20.00;;;;;;6310945;28;20098;-75
2022/07/28 15:42:15;;;;;;;1.58;1.10;;;39.30;20.00;;;;;;6301875;28;20109;-75
2022/07/28 15:45:16;;;;;;;1.52;0.98;;;40.20;19.40;;;;;;6293150;28;20036;-75
2022/07/28 15:48:17;;;;;;;2.22;1.23;;;41.20;18.70;;;;;;6277422;28;20040;-75
2022/07/28 15:54:35;;;;;;;1.98;1.25;;;42.60;17.50;;;;;;6377726;23;20037;-75
2022/07/28 15:57:37;;;;;;;1.13;1.05;;;42.90;17.20;;;;;;6273334;28;20033;-75
2022/07/28 16:00:38;;;;;;;6.28;1.15;;;42.90;17.10;;;;;;6290029;28;20037;-74
2022/07/28 16:03:39;;;;;;;1.75;1.13;;;43.20;16.90;;;;;;6272735;28;20086;-75
2022/07/28 16:10:00;;;;;;;1.75;1.17;;;44.40;16.30;;;;;;6272296;28;20529;-75
2022/07/28 16:13:01;;;;;;;3.50;1.05;;;44.40;16.30;;;;;;6282113;28;20030;-75